sensor_id;sensor_type;location;lat;lon;timestamp;P1;durP1;ratioP1;P2;durP2;ratioP2
23567;SDS011;11962;50.838;4.430;2023-08-07T00:00:34;7.95;;;2.80;;
23567;SDS011;11962;50.838;4.430;2023-08-07T00:03:00;11.10;;;2.50;;
23567;SDS011;11962;50.838;4.430;2023-08-07T00:05:25;12.45;;;3.28;;
23567;SDS011;11962;50.838;4.430;2023-08-07T00:07:51;7.72;;;2.60;;
23567;SDS011;11962;50.838;4.430;2023-08-07T00:10:17;5.70;;;2.75;;
23567;SDS011;11962;50.838;4.430;2023-08-07T00:12:42;8.18;;;2.63;;
23567;SDS011;11962;50.838;4.430;2023-08-07T00:15:08;11.82;;;3.03;;
23567;SDS011;11962;50.838;4.430;2023-08-07T00:17:35;11.02;;;3.17;;
23567;SDS011;11962;50.838;4.430;2023-08-07T00:20:01;8.13;;;2.53;;
23567;SDS011;11962;50.838;4.430;2023-08-07T00:22:29;9.20;;;3.03;;
23567;SDS011;11962;50.838;4.430;2023-08-07T00:24:55;8.25;;;2.97;;
23567;SDS011;11962;50.838;4.430;2023-08-07T00:27:20;8.43;;;2.42;;
23567;SDS011;11962;50.838;4.430;2023-08-07T00:29:46;8.05;;;2.95;;
23567;SDS011;11962;50.838;4.430;2023-08-07T00:32:12;12.88;;;2.75;;
23567;SDS011;11962;50.838;4.430;2023-08-07T00:34:37;8.85;;;2.38;;
23567;SDS011;11962;50.838;4.430;2023-08-07T00:37:03;8.07;;;2.97;;
23567;SDS011;11962;50.838;4.430;2023-08-07T00:39:29;6.32;;;2.50;;
23567;SDS011;11962;50.838;4.430;2023-08-07T00:41:55;6.50;;;2.90;;
23567;SDS011;11962;50.838;4.430;2023-08-07T00:44:20;7.65;;;2.67;;
23567;SDS011;11962;50.838;4.430;2023-08-07T00:46:48;7.65;;;2.65;;
23567;SDS011;11962;50.838;4.430;2023-08-07T00:49:14;6.00;;;2.47;;
23567;SDS011;11962;50.838;4.430;2023-08-07T00:51:42;5.97;;;2.85;;
23567;SDS011;11962;50.838;4.430;2023-08-07T00:54:08;11.65;;;3.10;;
23567;SDS011;11962;50.838;4.430;2023-08-07T00:56:36;9.20;;;2.65;;
23567;SDS011;11962;50.838;4.430;2023-08-07T00:59:02;4.20;;;2.22;;
23567;SDS011;11962;50.838;4.430;2023-08-07T01:01:28;11.90;;;2.85;;
23567;SDS011;11962;50.838;4.430;2023-08-07T01:03:54;10.73;;;2.90;;
23567;SDS011;11962;50.838;4.430;2023-08-07T01:06:20;5.63;;;2.50;;
23567;SDS011;11962;50.838;4.430;2023-08-07T01:08:46;9.23;;;2.25;;
23567;SDS011;11962;50.838;4.430;2023-08-07T01:14:01;8.15;;;3.00;;
23567;SDS011;11962;50.838;4.430;2023-08-07T01:19:23;7.70;;;2.28;;
23567;SDS011;11962;50.838;4.430;2023-08-07T01:22:04;9.18;;;2.67;;
23567;SDS011;11962;50.838;4.430;2023-08-07T01:24:37;7.65;;;2.22;;
23567;SDS011;11962;50.838;4.430;2023-08-07T01:27:12;8.60;;;2.65;;
23567;SDS011;11962;50.838;4.430;2023-08-07T01:35:20;6.55;;;2.72;;
23567;SDS011;11962;50.838;4.430;2023-08-07T01:37:52;8.35;;;2.25;;
23567;SDS011;11962;50.838;4.430;2023-08-07T01:40:21;7.38;;;2.38;;
23567;SDS011;11962;50.838;4.430;2023-08-07T01:42:47;7.72;;;2.58;;
23567;SDS011;11962;50.838;4.430;2023-08-07T01:45:13;6.80;;;2.75;;
23567;SDS011;11962;50.838;4.430;2023-08-07T01:47:39;3.13;;;2.00;;
23567;SDS011;11962;50.838;4.430;2023-08-07T01:50:05;7.20;;;2.50;;
23567;SDS011;11962;50.838;4.430;2023-08-07T01:52:31;6.95;;;2.50;;
23567;SDS011;11962;50.838;4.430;2023-08-07T01:54:58;8.00;;;2.70;;
23567;SDS011;11962;50.838;4.430;2023-08-07T01:57:24;6.55;;;2.30;;
23567;SDS011;11962;50.838;4.430;2023-08-07T01:59:50;7.78;;;2.60;;
23567;SDS011;11962;50.838;4.430;2023-08-07T02:02:16;8.82;;;3.00;;
23567;SDS011;11962;50.838;4.430;2023-08-07T02:04:42;6.70;;;2.45;;
23567;SDS011;11962;50.838;4.430;2023-08-07T02:07:08;6.05;;;2.30;;
23567;SDS011;11962;50.838;4.430;2023-08-07T02:09:34;6.30;;;2.55;;
23567;SDS011;11962;50.838;4.430;2023-08-07T02:11:59;4.32;;;2.30;;
23567;SDS011;11962;50.838;4.430;2023-08-07T02:14:26;7.32;;;2.40;;
23567;SDS011;11962;50.838;4.430;2023-08-07T02:16:52;6.53;;;2.30;;
23567;SDS011;11962;50.838;4.430;2023-08-07T02:19:17;9.77;;;2.53;;
23567;SDS011;11962;50.838;4.430;2023-08-07T02:21:43;8.25;;;2.45;;
23567;SDS011;11962;50.838;4.430;2023-08-07T02:24:09;7.22;;;2.38;;
23567;SDS011;11962;50.838;4.430;2023-08-07T02:26:34;6.47;;;2.20;;
23567;SDS011;11962;50.838;4.430;2023-08-07T02:29:00;7.20;;;2.28;;
23567;SDS011;11962;50.838;4.430;2023-08-07T02:31:28;9.75;;;2.70;;
23567;SDS011;11962;50.838;4.430;2023-08-07T02:33:53;6.68;;;2.53;;
23567;SDS011;11962;50.838;4.430;2023-08-07T02:36:19;6.07;;;2.40;;
23567;SDS011;11962;50.838;4.430;2023-08-07T02:38:45;6.10;;;2.08;;
23567;SDS011;11962;50.838;4.430;2023-08-07T02:41:10;6.50;;;2.50;;
23567;SDS011;11962;50.838;4.430;2023-08-07T02:43:36;4.78;;;2.10;;
23567;SDS011;11962;50.838;4.430;2023-08-07T02:46:02;5.95;;;1.90;;
23567;SDS011;11962;50.838;4.430;2023-08-07T02:48:27;11.45;;;2.10;;
23567;SDS011;11962;50.838;4.430;2023-08-07T02:50:53;5.47;;;2.03;;
23567;SDS011;11962;50.838;4.430;2023-08-07T02:53:19;5.45;;;2.30;;
23567;SDS011;11962;50.838;4.430;2023-08-07T02:55:44;7.32;;;2.08;;
23567;SDS011;11962;50.838;4.430;2023-08-07T02:58:10;8.73;;;2.40;;
23567;SDS011;11962;50.838;4.430;2023-08-07T03:00:36;11.02;;;2.70;;
23567;SDS011;11962;50.838;4.430;2023-08-07T03:03:02;6.68;;;2.53;;
23567;SDS011;11962;50.838;4.430;2023-08-07T03:05:27;8.73;;;2.30;;
23567;SDS011;11962;50.838;4.430;2023-08-07T03:07:53;5.68;;;2.00;;
23567;SDS011;11962;50.838;4.430;2023-08-07T03:10:19;5.90;;;2.35;;
23567;SDS011;11962;50.838;4.430;2023-08-07T03:12:44;5.00;;;2.03;;
23567;SDS011;11962;50.838;4.430;2023-08-07T03:15:10;5.60;;;2.20;;
23567;SDS011;11962;50.838;4.430;2023-08-07T03:17:36;6.45;;;1.92;;
23567;SDS011;11962;50.838;4.430;2023-08-07T03:20:02;9.10;;;2.10;;
23567;SDS011;11962;50.838;4.430;2023-08-07T03:22:29;5.93;;;2.10;;
23567;SDS011;11962;50.838;4.430;2023-08-07T03:24:55;8.60;;;2.33;;
23567;SDS011;11962;50.838;4.430;2023-08-07T03:27:20;7.55;;;2.45;;
23567;SDS011;11962;50.838;4.430;2023-08-07T03:29:46;7.38;;;2.58;;
23567;SDS011;11962;50.838;4.430;2023-08-07T03:32:12;3.25;;;1.90;;
23567;SDS011;11962;50.838;4.430;2023-08-07T03:34:38;8.02;;;2.42;;
23567;SDS011;11962;50.838;4.430;2023-08-07T03:37:03;9.40;;;2.47;;
23567;SDS011;11962;50.838;4.430;2023-08-07T03:39:29;5.57;;;2.45;;
23567;SDS011;11962;50.838;4.430;2023-08-07T03:41:55;7.47;;;2.03;;
23567;SDS011;11962;50.838;4.430;2023-08-07T03:44:21;7.75;;;2.10;;
23567;SDS011;11962;50.838;4.430;2023-08-07T03:46:46;5.25;;;2.25;;
23567;SDS011;11962;50.838;4.430;2023-08-07T03:49:12;6.15;;;2.08;;
23567;SDS011;11962;50.838;4.430;2023-08-07T03:51:38;5.93;;;1.98;;
23567;SDS011;11962;50.838;4.430;2023-08-07T03:54:04;6.97;;;2.38;;
23567;SDS011;11962;50.838;4.430;2023-08-07T03:56:30;5.90;;;2.28;;
23567;SDS011;11962;50.838;4.430;2023-08-07T03:59:04;2.88;;;1.88;;
23567;SDS011;11962;50.838;4.430;2023-08-07T04:01:30;7.22;;;2.10;;
23567;SDS011;11962;50.838;4.430;2023-08-07T04:03:56;4.85;;;2.50;;
23567;SDS011;11962;50.838;4.430;2023-08-07T04:06:22;9.75;;;2.30;;
23567;SDS011;11962;50.838;4.430;2023-08-07T04:08:47;7.05;;;2.17;;
23567;SDS011;11962;50.838;4.430;2023-08-07T04:11:13;8.25;;;2.40;;
23567;SDS011;11962;50.838;4.430;2023-08-07T04:13:39;9.13;;;2.83;;
23567;SDS011;11962;50.838;4.430;2023-08-07T04:16:05;6.93;;;2.40;;
23567;SDS011;11962;50.838;4.430;2023-08-07T04:18:31;5.68;;;2.30;;
23567;SDS011;11962;50.838;4.430;2023-08-07T04:20:58;8.73;;;3.10;;
23567;SDS011;11962;50.838;4.430;2023-08-07T04:23:24;9.43;;;2.63;;
23567;SDS011;11962;50.838;4.430;2023-08-07T04:25:50;5.13;;;2.38;;
23567;SDS011;11962;50.838;4.430;2023-08-07T04:28:16;9.38;;;2.65;;
23567;SDS011;11962;50.838;4.430;2023-08-07T04:30:43;7.43;;;2.38;;
23567;SDS011;11962;50.838;4.430;2023-08-07T04:33:09;8.80;;;2.40;;
23567;SDS011;11962;50.838;4.430;2023-08-07T04:35:35;8.55;;;2.97;;
23567;SDS011;11962;50.838;4.430;2023-08-07T04:38:01;10.40;;;2.70;;
23567;SDS011;11962;50.838;4.430;2023-08-07T04:40:28;5.18;;;2.28;;
23567;SDS011;11962;50.838;4.430;2023-08-07T04:42:54;7.82;;;2.45;;
23567;SDS011;11962;50.838;4.430;2023-08-07T04:45:20;5.38;;;2.35;;
23567;SDS011;11962;50.838;4.430;2023-08-07T04:47:46;10.38;;;2.47;;
23567;SDS011;11962;50.838;4.430;2023-08-07T04:50:12;7.43;;;2.65;;
23567;SDS011;11962;50.838;4.430;2023-08-07T04:52:38;10.05;;;2.58;;
23567;SDS011;11962;50.838;4.430;2023-08-07T04:55:04;15.48;;;2.78;;
23567;SDS011;11962;50.838;4.430;2023-08-07T04:57:30;6.13;;;2.60;;
23567;SDS011;11962;50.838;4.430;2023-08-07T04:59:56;7.97;;;2.40;;
23567;SDS011;11962;50.838;4.430;2023-08-07T05:02:21;9.13;;;2.72;;
23567;SDS011;11962;50.838;4.430;2023-08-07T05:04:47;6.22;;;2.42;;
23567;SDS011;11962;50.838;4.430;2023-08-07T05:07:13;9.00;;;2.88;;
23567;SDS011;11962;50.838;4.430;2023-08-07T05:09:40;7.10;;;2.67;;
23567;SDS011;11962;50.838;4.430;2023-08-07T05:12:06;8.07;;;2.28;;
23567;SDS011;11962;50.838;4.430;2023-08-07T05:14:32;5.78;;;2.45;;
23567;SDS011;11962;50.838;4.430;2023-08-07T05:16:58;8.32;;;2.42;;
23567;SDS011;11962;50.838;4.430;2023-08-07T05:19:26;5.47;;;2.60;;
23567;SDS011;11962;50.838;4.430;2023-08-07T05:21:52;8.23;;;2.67;;
23567;SDS011;11962;50.838;4.430;2023-08-07T05:24:18;7.00;;;2.40;;
23567;SDS011;11962;50.838;4.430;2023-08-07T05:26:44;8.55;;;2.60;;
23567;SDS011;11962;50.838;4.430;2023-08-07T05:29:10;8.65;;;2.42;;
23567;SDS011;11962;50.838;4.430;2023-08-07T05:31:36;6.10;;;2.13;;
23567;SDS011;11962;50.838;4.430;2023-08-07T05:34:02;10.35;;;2.58;;
23567;SDS011;11962;50.838;4.430;2023-08-07T05:36:28;8.15;;;2.38;;
23567;SDS011;11962;50.838;4.430;2023-08-07T05:38:56;10.15;;;2.70;;
23567;SDS011;11962;50.838;4.430;2023-08-07T05:41:22;6.63;;;2.40;;
23567;SDS011;11962;50.838;4.430;2023-08-07T05:43:47;9.80;;;2.83;;
23567;SDS011;11962;50.838;4.430;2023-08-07T05:46:13;8.10;;;2.67;;
23567;SDS011;11962;50.838;4.430;2023-08-07T05:48:39;5.55;;;2.40;;
23567;SDS011;11962;50.838;4.430;2023-08-07T05:51:05;8.38;;;2.85;;
23567;SDS011;11962;50.838;4.430;2023-08-07T05:53:32;5.45;;;2.70;;
23567;SDS011;11962;50.838;4.430;2023-08-07T05:55:59;7.47;;;2.60;;
23567;SDS011;11962;50.838;4.430;2023-08-07T05:58:24;9.00;;;2.78;;
23567;SDS011;11962;50.838;4.430;2023-08-07T06:00:50;5.35;;;2.33;;
23567;SDS011;11962;50.838;4.430;2023-08-07T06:03:16;9.95;;;2.83;;
23567;SDS011;11962;50.838;4.430;2023-08-07T06:05:41;8.82;;;2.53;;
23567;SDS011;11962;50.838;4.430;2023-08-07T06:08:07;9.70;;;2.60;;
23567;SDS011;11962;50.838;4.430;2023-08-07T06:10:33;7.53;;;2.60;;
23567;SDS011;11962;50.838;4.430;2023-08-07T06:12:59;11.07;;;2.90;;
23567;SDS011;11962;50.838;4.430;2023-08-07T06:15:25;7.90;;;2.88;;
23567;SDS011;11962;50.838;4.430;2023-08-07T06:17:52;10.27;;;2.50;;
23567;SDS011;11962;50.838;4.430;2023-08-07T06:20:17;9.68;;;2.67;;
23567;SDS011;11962;50.838;4.430;2023-08-07T06:22:43;6.85;;;2.08;;
23567;SDS011;11962;50.838;4.430;2023-08-07T06:25:09;8.70;;;2.20;;
23567;SDS011;11962;50.838;4.430;2023-08-07T06:27:35;4.90;;;2.08;;
23567;SDS011;11962;50.838;4.430;2023-08-07T06:30:01;4.70;;;2.00;;
23567;SDS011;11962;50.838;4.430;2023-08-07T06:32:27;5.70;;;2.28;;
23567;SDS011;11962;50.838;4.430;2023-08-07T06:34:52;7.43;;;2.00;;
23567;SDS011;11962;50.838;4.430;2023-08-07T06:37:19;4.88;;;1.73;;
23567;SDS011;11962;50.838;4.430;2023-08-07T06:39:45;5.55;;;1.67;;
23567;SDS011;11962;50.838;4.430;2023-08-07T06:42:11;6.60;;;1.90;;
23567;SDS011;11962;50.838;4.430;2023-08-07T06:44:37;3.75;;;1.85;;
23567;SDS011;11962;50.838;4.430;2023-08-07T06:47:03;5.60;;;1.80;;
23567;SDS011;11962;50.838;4.430;2023-08-07T06:49:29;5.88;;;1.70;;
23567;SDS011;11962;50.838;4.430;2023-08-07T06:51:56;3.67;;;1.63;;
23567;SDS011;11962;50.838;4.430;2023-08-07T06:54:23;4.68;;;1.88;;
23567;SDS011;11962;50.838;4.430;2023-08-07T06:56:49;4.63;;;1.90;;
23567;SDS011;11962;50.838;4.430;2023-08-07T06:59:14;6.00;;;1.80;;
23567;SDS011;11962;50.838;4.430;2023-08-07T07:01:40;8.98;;;1.92;;
23567;SDS011;11962;50.838;4.430;2023-08-07T07:04:06;8.00;;;1.80;;
23567;SDS011;11962;50.838;4.430;2023-08-07T07:06:32;5.03;;;1.70;;
23567;SDS011;11962;50.838;4.430;2023-08-07T07:08:58;8.68;;;1.65;;
23567;SDS011;11962;50.838;4.430;2023-08-07T07:11:24;6.32;;;1.83;;
23567;SDS011;11962;50.838;4.430;2023-08-07T07:13:50;3.88;;;1.85;;
23567;SDS011;11962;50.838;4.430;2023-08-07T07:16:17;6.47;;;1.88;;
23567;SDS011;11962;50.838;4.430;2023-08-07T07:18:44;7.35;;;1.75;;
23567;SDS011;11962;50.838;4.430;2023-08-07T07:21:09;7.53;;;1.73;;
23567;SDS011;11962;50.838;4.430;2023-08-07T07:23:38;3.33;;;1.52;;
23567;SDS011;11962;50.838;4.430;2023-08-07T07:26:03;4.53;;;1.85;;
23567;SDS011;11962;50.838;4.430;2023-08-07T07:28:30;5.80;;;1.73;;
23567;SDS011;11962;50.838;4.430;2023-08-07T07:30:56;5.90;;;1.65;;
23567;SDS011;11962;50.838;4.430;2023-08-07T07:33:22;5.20;;;1.77;;
23567;SDS011;11962;50.838;4.430;2023-08-07T07:35:48;4.80;;;1.60;;
23567;SDS011;11962;50.838;4.430;2023-08-07T07:38:14;10.23;;;2.03;;
23567;SDS011;11962;50.838;4.430;2023-08-07T07:40:41;6.95;;;1.92;;
23567;SDS011;11962;50.838;4.430;2023-08-07T07:43:06;6.45;;;1.90;;
23567;SDS011;11962;50.838;4.430;2023-08-07T07:45:32;4.95;;;2.05;;
23567;SDS011;11962;50.838;4.430;2023-08-07T07:48:02;4.00;;;1.48;;
23567;SDS011;11962;50.838;4.430;2023-08-07T07:50:28;3.08;;;1.50;;
23567;SDS011;11962;50.838;4.430;2023-08-07T07:52:54;4.28;;;1.48;;
23567;SDS011;11962;50.838;4.430;2023-08-07T07:55:20;4.07;;;1.65;;
23567;SDS011;11962;50.838;4.430;2023-08-07T07:57:45;5.07;;;1.35;;
23567;SDS011;11962;50.838;4.430;2023-08-07T08:00:11;7.25;;;1.73;;
23567;SDS011;11962;50.838;4.430;2023-08-07T08:02:38;4.82;;;1.40;;
23567;SDS011;11962;50.838;4.430;2023-08-07T08:05:06;5.82;;;1.52;;
23567;SDS011;11962;50.838;4.430;2023-08-07T08:07:33;4.75;;;1.50;;
23567;SDS011;11962;50.838;4.430;2023-08-07T08:09:59;5.15;;;1.15;;
23567;SDS011;11962;50.838;4.430;2023-08-07T08:12:25;3.10;;;1.30;;
23567;SDS011;11962;50.838;4.430;2023-08-07T08:14:51;5.13;;;2.67;;
23567;SDS011;11962;50.838;4.430;2023-08-07T08:17:17;2.42;;;1.15;;
23567;SDS011;11962;50.838;4.430;2023-08-07T08:19:43;2.17;;;1.15;;
23567;SDS011;11962;50.838;4.430;2023-08-07T08:22:08;5.63;;;1.50;;
23567;SDS011;11962;50.838;4.430;2023-08-07T08:24:34;3.33;;;1.48;;
23567;SDS011;11962;50.838;4.430;2023-08-07T08:27:00;4.40;;;1.60;;
23567;SDS011;11962;50.838;4.430;2023-08-07T08:29:26;3.00;;;1.40;;
23567;SDS011;11962;50.838;4.430;2023-08-07T08:31:54;5.30;;;1.45;;
23567;SDS011;11962;50.838;4.430;2023-08-07T08:34:21;6.20;;;1.52;;
23567;SDS011;11962;50.838;4.430;2023-08-07T08:36:47;5.15;;;1.50;;
23567;SDS011;11962;50.838;4.430;2023-08-07T08:39:13;3.60;;;1.38;;
23567;SDS011;11962;50.838;4.430;2023-08-07T08:41:39;3.92;;;1.38;;
23567;SDS011;11962;50.838;4.430;2023-08-07T08:44:07;5.35;;;1.38;;
23567;SDS011;11962;50.838;4.430;2023-08-07T08:46:36;4.97;;;1.70;;
23567;SDS011;11962;50.838;4.430;2023-08-07T08:49:03;3.58;;;1.45;;
23567;SDS011;11962;50.838;4.430;2023-08-07T08:51:30;3.03;;;1.40;;
23567;SDS011;11962;50.838;4.430;2023-08-07T08:53:57;2.83;;;1.35;;
23567;SDS011;11962;50.838;4.430;2023-08-07T08:56:24;4.45;;;1.48;;
23567;SDS011;11962;50.838;4.430;2023-08-07T08:58:50;2.45;;;1.33;;
23567;SDS011;11962;50.838;4.430;2023-08-07T09:01:19;5.65;;;1.60;;
23567;SDS011;11962;50.838;4.430;2023-08-07T09:03:46;3.47;;;1.40;;
23567;SDS011;11962;50.838;4.430;2023-08-07T09:06:12;5.90;;;1.75;;
23567;SDS011;11962;50.838;4.430;2023-08-07T09:08:43;3.40;;;1.35;;
23567;SDS011;11962;50.838;4.430;2023-08-07T09:11:10;2.92;;;1.23;;
23567;SDS011;11962;50.838;4.430;2023-08-07T09:13:37;4.82;;;1.33;;
23567;SDS011;11962;50.838;4.430;2023-08-07T09:16:04;4.22;;;1.10;;
23567;SDS011;11962;50.838;4.430;2023-08-07T09:18:33;3.83;;;1.48;;
23567;SDS011;11962;50.838;4.430;2023-08-07T09:20:59;6.80;;;1.65;;
23567;SDS011;11962;50.838;4.430;2023-08-07T09:23:25;3.03;;;1.48;;
23567;SDS011;11962;50.838;4.430;2023-08-07T09:26:04;3.92;;;1.77;;
23567;SDS011;11962;50.838;4.430;2023-08-07T09:28:31;3.50;;;1.33;;
23567;SDS011;11962;50.838;4.430;2023-08-07T09:30:58;2.58;;;1.50;;
23567;SDS011;11962;50.838;4.430;2023-08-07T09:33:28;9.05;;;1.65;;
23567;SDS011;11962;50.838;4.430;2023-08-07T09:35:58;3.22;;;1.50;;
23567;SDS011;11962;50.838;4.430;2023-08-07T09:38:31;3.13;;;1.52;;
23567;SDS011;11962;50.838;4.430;2023-08-07T09:41:01;3.13;;;1.25;;
23567;SDS011;11962;50.838;4.430;2023-08-07T09:43:28;5.07;;;1.50;;
23567;SDS011;11962;50.838;4.430;2023-08-07T09:46:04;3.30;;;1.40;;
23567;SDS011;11962;50.838;4.430;2023-08-07T09:48:30;3.65;;;1.40;;
23567;SDS011;11962;50.838;4.430;2023-08-07T09:51:02;2.90;;;1.27;;
23567;SDS011;11962;50.838;4.430;2023-08-07T09:53:29;3.78;;;1.25;;
23567;SDS011;11962;50.838;4.430;2023-08-07T09:55:56;2.85;;;1.30;;
23567;SDS011;11962;50.838;4.430;2023-08-07T09:58:22;2.30;;;1.25;;
23567;SDS011;11962;50.838;4.430;2023-08-07T10:00:49;3.50;;;1.05;;
23567;SDS011;11962;50.838;4.430;2023-08-07T10:03:15;2.13;;;1.10;;
23567;SDS011;11962;50.838;4.430;2023-08-07T10:05:43;3.00;;;1.23;;
23567;SDS011;11962;50.838;4.430;2023-08-07T10:10:37;2.45;;;0.90;;
23567;SDS011;11962;50.838;4.430;2023-08-07T10:13:03;2.25;;;1.23;;
23567;SDS011;11962;50.838;4.430;2023-08-07T10:15:31;4.20;;;1.10;;
23567;SDS011;11962;50.838;4.430;2023-08-07T10:17:58;3.75;;;1.25;;
23567;SDS011;11962;50.838;4.430;2023-08-07T10:20:25;4.03;;;1.23;;
23567;SDS011;11962;50.838;4.430;2023-08-07T10:22:53;2.55;;;1.30;;
23567;SDS011;11962;50.838;4.430;2023-08-07T10:25:24;3.20;;;1.20;;
23567;SDS011;11962;50.838;4.430;2023-08-07T10:27:52;2.85;;;1.20;;
23567;SDS011;11962;50.838;4.430;2023-08-07T10:30:20;2.70;;;1.13;;
23567;SDS011;11962;50.838;4.430;2023-08-07T10:32:47;3.55;;;1.20;;
23567;SDS011;11962;50.838;4.430;2023-08-07T10:35:28;1.63;;;0.88;;
23567;SDS011;11962;50.838;4.430;2023-08-07T10:37:57;1.92;;;1.00;;
23567;SDS011;11962;50.838;4.430;2023-08-07T10:43:37;3.00;;;1.20;;
23567;SDS011;11962;50.838;4.430;2023-08-07T10:46:10;2.38;;;1.00;;
23567;SDS011;11962;50.838;4.430;2023-08-07T10:48:38;2.38;;;1.00;;
23567;SDS011;11962;50.838;4.430;2023-08-07T10:51:05;1.63;;;1.00;;
23567;SDS011;11962;50.838;4.430;2023-08-07T10:53:32;3.20;;;1.30;;
23567;SDS011;11962;50.838;4.430;2023-08-07T10:56:01;1.90;;;1.00;;
23567;SDS011;11962;50.838;4.430;2023-08-07T10:58:31;3.30;;;1.17;;
23567;SDS011;11962;50.838;4.430;2023-08-07T11:01:17;1.45;;;0.90;;
23567;SDS011;11962;50.838;4.430;2023-08-07T11:03:59;1.52;;;1.17;;
23567;SDS011;11962;50.838;4.430;2023-08-07T11:06:31;2.50;;;1.10;;
23567;SDS011;11962;50.838;4.430;2023-08-07T11:09:05;2.90;;;1.40;;
23567;SDS011;11962;50.838;4.430;2023-08-07T11:11:38;3.33;;;1.20;;
23567;SDS011;11962;50.838;4.430;2023-08-07T11:14:08;2.28;;;1.10;;
23567;SDS011;11962;50.838;4.430;2023-08-07T11:16:35;1.85;;;1.00;;
23567;SDS011;11962;50.838;4.430;2023-08-07T11:19:01;2.10;;;1.40;;
23567;SDS011;11962;50.838;4.430;2023-08-07T11:21:27;3.83;;;1.23;;
23567;SDS011;11962;50.838;4.430;2023-08-07T11:23:55;3.03;;;1.30;;
23567;SDS011;11962;50.838;4.430;2023-08-07T11:26:21;2.45;;;1.00;;
23567;SDS011;11962;50.838;4.430;2023-08-07T11:28:47;2.83;;;1.10;;
23567;SDS011;11962;50.838;4.430;2023-08-07T11:31:13;3.55;;;1.20;;
23567;SDS011;11962;50.838;4.430;2023-08-07T11:33:40;4.53;;;1.33;;
23567;SDS011;11962;50.838;4.430;2023-08-07T11:36:14;3.80;;;1.27;;
23567;SDS011;11962;50.838;4.430;2023-08-07T11:38:41;4.28;;;1.08;;
23567;SDS011;11962;50.838;4.430;2023-08-07T11:41:09;3.55;;;1.23;;
23567;SDS011;11962;50.838;4.430;2023-08-07T11:43:40;3.10;;;1.30;;
23567;SDS011;11962;50.838;4.430;2023-08-07T11:46:07;1.30;;;0.98;;
23567;SDS011;11962;50.838;4.430;2023-08-07T11:48:34;1.93;;;1.33;;
23567;SDS011;11962;50.838;4.430;2023-08-07T11:51:01;1.65;;;1.15;;
23567;SDS011;11962;50.838;4.430;2023-08-07T11:53:29;1.00;;;0.90;;
23567;SDS011;11962;50.838;4.430;2023-08-07T11:58:34;2.80;;;1.20;;
23567;SDS011;11962;50.838;4.430;2023-08-07T12:01:03;4.20;;;1.27;;
23567;SDS011;11962;50.838;4.430;2023-08-07T12:03:30;3.47;;;1.42;;
23567;SDS011;11962;50.838;4.430;2023-08-07T12:05:58;2.75;;;1.40;;
23567;SDS011;11962;50.838;4.430;2023-08-07T12:11:01;1.67;;;1.25;;
23567;SDS011;11962;50.838;4.430;2023-08-07T12:13:28;1.85;;;1.45;;
23567;SDS011;11962;50.838;4.430;2023-08-07T12:15:55;1.38;;;1.02;;
23567;SDS011;11962;50.838;4.430;2023-08-07T12:18:22;1.83;;;1.25;;
23567;SDS011;11962;50.838;4.430;2023-08-07T12:20:52;3.13;;;1.10;;
23567;SDS011;11962;50.838;4.430;2023-08-07T12:23:21;2.10;;;1.10;;
23567;SDS011;11962;50.838;4.430;2023-08-07T12:25:47;2.75;;;0.93;;
23567;SDS011;11962;50.838;4.430;2023-08-07T12:28:14;3.60;;;1.30;;
23567;SDS011;11962;50.838;4.430;2023-08-07T12:30:43;4.28;;;1.40;;
23567;SDS011;11962;50.838;4.430;2023-08-07T12:33:10;2.10;;;1.15;;
23567;SDS011;11962;50.838;4.430;2023-08-07T12:35:36;1.50;;;1.00;;
23567;SDS011;11962;50.838;4.430;2023-08-07T12:38:02;2.47;;;0.93;;
23567;SDS011;11962;50.838;4.430;2023-08-07T12:40:28;3.58;;;1.02;;
23567;SDS011;11962;50.838;4.430;2023-08-07T12:42:55;1.50;;;1.05;;
23567;SDS011;11962;50.838;4.430;2023-08-07T12:45:21;1.50;;;1.10;;
23567;SDS011;11962;50.838;4.430;2023-08-07T12:47:47;3.28;;;1.00;;
23567;SDS011;11962;50.838;4.430;2023-08-07T12:50:13;1.38;;;0.98;;
23567;SDS011;11962;50.838;4.430;2023-08-07T12:52:39;2.45;;;1.00;;
23567;SDS011;11962;50.838;4.430;2023-08-07T12:55:05;2.33;;;0.90;;
23567;SDS011;11962;50.838;4.430;2023-08-07T12:57:31;4.07;;;1.10;;
23567;SDS011;11962;50.838;4.430;2023-08-07T12:59:57;1.95;;;1.10;;
23567;SDS011;11962;50.838;4.430;2023-08-07T13:02:23;1.08;;;0.90;;
23567;SDS011;11962;50.838;4.430;2023-08-07T13:04:48;2.33;;;1.20;;
23567;SDS011;11962;50.838;4.430;2023-08-07T13:07:15;2.67;;;1.00;;
23567;SDS011;11962;50.838;4.430;2023-08-07T13:09:42;1.75;;;0.88;;
23567;SDS011;11962;50.838;4.430;2023-08-07T13:12:08;1.38;;;1.02;;
23567;SDS011;11962;50.838;4.430;2023-08-07T13:14:33;1.02;;;0.90;;
23567;SDS011;11962;50.838;4.430;2023-08-07T13:16:59;3.45;;;1.10;;
23567;SDS011;11962;50.838;4.430;2023-08-07T13:19:25;2.42;;;0.70;;
23567;SDS011;11962;50.838;4.430;2023-08-07T13:21:51;1.00;;;0.82;;
23567;SDS011;11962;50.838;4.430;2023-08-07T13:24:16;3.00;;;1.00;;
23567;SDS011;11962;50.838;4.430;2023-08-07T13:26:42;2.20;;;1.20;;
23567;SDS011;11962;50.838;4.430;2023-08-07T13:29:11;1.88;;;1.00;;
23567;SDS011;11962;50.838;4.430;2023-08-07T13:31:37;1.35;;;0.80;;
23567;SDS011;11962;50.838;4.430;2023-08-07T13:34:03;1.27;;;0.73;;
23567;SDS011;11962;50.838;4.430;2023-08-07T13:36:36;2.90;;;0.77;;
23567;SDS011;11962;50.838;4.430;2023-08-07T13:39:05;1.17;;;0.80;;
23567;SDS011;11962;50.838;4.430;2023-08-07T13:41:31;1.52;;;0.70;;
23567;SDS011;11962;50.838;4.430;2023-08-07T13:43:57;0.82;;;0.65;;
23567;SDS011;11962;50.838;4.430;2023-08-07T13:46:23;3.78;;;0.70;;
23567;SDS011;11962;50.838;4.430;2023-08-07T13:48:50;1.75;;;0.70;;
23567;SDS011;11962;50.838;4.430;2023-08-07T13:51:16;0.50;;;0.50;;
23567;SDS011;11962;50.838;4.430;2023-08-07T13:53:43;2.22;;;0.85;;
23567;SDS011;11962;50.838;4.430;2023-08-07T13:56:09;1.15;;;0.57;;
23567;SDS011;11962;50.838;4.430;2023-08-07T13:58:37;1.38;;;0.90;;
23567;SDS011;11962;50.838;4.430;2023-08-07T14:01:04;2.05;;;0.60;;
23567;SDS011;11962;50.838;4.430;2023-08-07T14:03:30;2.20;;;0.60;;
23567;SDS011;11962;50.838;4.430;2023-08-07T14:05:56;1.15;;;0.70;;
23567;SDS011;11962;50.838;4.430;2023-08-07T14:08:21;2.45;;;0.63;;
23567;SDS011;11962;50.838;4.430;2023-08-07T14:10:47;2.75;;;0.80;;
23567;SDS011;11962;50.838;4.430;2023-08-07T14:13:13;0.98;;;0.70;;
23567;SDS011;11962;50.838;4.430;2023-08-07T14:15:39;3.05;;;0.60;;
23567;SDS011;11962;50.838;4.430;2023-08-07T14:18:05;1.23;;;0.75;;
23567;SDS011;11962;50.838;4.430;2023-08-07T14:20:31;0.75;;;0.50;;
23567;SDS011;11962;50.838;4.430;2023-08-07T14:22:57;2.30;;;0.75;;
23567;SDS011;11962;50.838;4.430;2023-08-07T14:25:23;2.53;;;0.85;;
23567;SDS011;11962;50.838;4.430;2023-08-07T14:27:49;1.85;;;0.85;;
23567;SDS011;11962;50.838;4.430;2023-08-07T14:30:15;1.60;;;0.77;;
23567;SDS011;11962;50.838;4.430;2023-08-07T14:32:40;1.70;;;0.77;;
23567;SDS011;11962;50.838;4.430;2023-08-07T14:35:08;1.10;;;0.85;;
23567;SDS011;11962;50.838;4.430;2023-08-07T14:37:34;1.63;;;0.70;;
23567;SDS011;11962;50.838;4.430;2023-08-07T14:40:01;2.45;;;0.70;;
23567;SDS011;11962;50.838;4.430;2023-08-07T14:42:27;1.58;;;0.50;;
23567;SDS011;11962;50.838;4.430;2023-08-07T14:44:53;2.22;;;0.80;;
23567;SDS011;11962;50.838;4.430;2023-08-07T14:47:19;1.08;;;0.80;;
23567;SDS011;11962;50.838;4.430;2023-08-07T14:49:45;1.40;;;0.80;;
23567;SDS011;11962;50.838;4.430;2023-08-07T14:52:10;1.20;;;0.60;;
23567;SDS011;11962;50.838;4.430;2023-08-07T14:54:36;1.80;;;0.88;;
23567;SDS011;11962;50.838;4.430;2023-08-07T14:57:02;3.08;;;0.63;;
23567;SDS011;11962;50.838;4.430;2023-08-07T14:59:28;1.90;;;0.60;;
23567;SDS011;11962;50.838;4.430;2023-08-07T15:01:53;2.10;;;0.65;;
23567;SDS011;11962;50.838;4.430;2023-08-07T15:04:19;1.27;;;0.50;;
23567;SDS011;11962;50.838;4.430;2023-08-07T15:06:45;1.90;;;0.50;;